Time;durP1;ratioP1;P1;durP2;ratioP2;P2;SDS_P1;SDS_P2;PMS_P1;PMS_P2;Temp;Humidity;BMP_temperature;BMP_pressure;BME280_temperature;BME280_humidity;BME280_pressure;Samples;Min_cycle;Max_cycle;Signal;HPM_P1;HPM_P2
2022/03/22 00:02:23;;;;;;;8.95;3.17;;;;;;;6.61;56.76;102297.14;1783025;80;21103;-55
2022/03/22 00:04:52;;;;;;;10.15;3.20;;;;;;;6.59;56.84;102296.41;1782983;80;21186;-55
2022/03/22 00:07:21;;;;;;;10.48;3.33;;;;;;;6.56;56.98;102295.30;1782874;80;21568;-54
2022/03/22 00:09:51;;;;;;;11.68;3.27;;;;;;;6.53;57.03;102290.09;1782991;80;21087;-54
2022/03/22 00:12:21;;;;;;;8.33;2.92;;;;;;;6.52;57.14;102291.09;1782823;80;21099;-54
2022/03/22 00:14:51;;;;;;;7.75;3.10;;;;;;;6.51;57.15;102298.02;1782842;80;21578;-54
2022/03/22 00:17:23;;;;;;;8.38;3.58;;;;;;;6.47;57.22;102285.11;1779964;80;21601;-54
2022/03/22 00:19:54;;;;;;;8.18;2.95;;;;;;;6.46;57.38;102297.00;1782588;80;21111;-56
2022/03/22 00:22:24;;;;;;;9.90;2.95;;;;;;;6.43;57.47;102293.16;1782823;80;21608;-56
2022/03/22 00:24:54;;;;;;;11.73;3.30;;;;;;;6.41;57.57;102295.14;1783049;80;21126;-55
2022/03/22 00:27:23;;;;;;;9.93;3.27;;;;;;;6.39;57.66;102285.37;1788360;80;21110;-55
2022/03/22 00:29:52;;;;;;;7.25;2.92;;;;;;;6.34;57.91;102295.27;1788549;80;21186;-55
2022/03/22 00:32:21;;;;;;;8.20;3.25;;;;;;;6.31;57.95;102284.63;1788585;80;21146;-54
2022/03/22 00:34:53;;;;;;;10.32;3.85;;;;;;;6.30;58.07;102286.48;1788643;80;21151;-54
2022/03/22 00:37:22;;;;;;;9.73;3.22;;;;;;;6.28;58.10;102288.47;1788344;80;21275;-54
2022/03/22 00:39:52;;;;;;;8.70;3.27;;;;;;;6.24;58.08;102282.89;1788643;80;21158;-55
2022/03/22 00:42:21;;;;;;;9.03;3.10;;;;;;;6.22;58.39;102284.01;1788175;80;21571;-54
2022/03/22 00:44:50;;;;;;;8.30;3.08;;;;;;;6.19;58.51;102277.45;1788574;80;21115;-55
2022/03/22 00:47:21;;;;;;;9.98;3.60;;;;;;;6.17;58.60;102280.80;1788256;80;21143;-54
2022/03/22 00:49:51;;;;;;;10.23;3.47;;;;;;;6.16;58.57;102277.70;1788527;80;21535;-55
2022/03/22 00:52:20;;;;;;;11.22;3.77;;;;;;;6.14;58.62;102277.82;1788516;80;21103;-55
2022/03/22 00:54:49;;;;;;;6.65;3.20;;;;;;;6.12;58.63;102270.77;1788430;80;21095;-54
2022/03/22 00:57:18;;;;;;;8.43;3.27;;;;;;;6.09;58.69;102272.38;1788552;80;21095;-54
2022/03/22 01:00:04;;;;;;;7.10;3.40;;;;;;;6.08;58.85;102270.64;1788315;80;21111;-53
2022/03/22 01:02:45;;;;;;;8.78;3.37;;;;;;;6.06;58.87;102271.27;1788558;80;21118;-54
2022/03/22 01:05:16;;;;;;;11.20;3.98;;;;;;;6.02;58.93;102266.06;1788463;80;21162;-55
2022/03/22 01:07:48;;;;;;;7.37;3.30;;;;;;;6.00;58.95;102272.12;1788315;80;21103;-55
2022/03/22 01:10:19;;;;;;;11.55;3.45;;;;;;;5.99;59.06;102266.80;1788274;80;21114;-54
2022/03/22 01:12:48;;;;;;;8.90;4.00;;;;;;;5.95;59.15;102267.54;1788280;80;21162;-53
2022/03/22 01:15:23;;;;;;;13.65;4.30;;;;;;;5.95;59.25;102270.76;1788267;80;21150;-54
2022/03/22 01:17:54;;;;;;;10.28;3.50;;;;;;;5.91;59.43;102267.91;1788431;80;21598;-54
2022/03/22 01:20:25;;;;;;;12.00;3.52;;;;;;;5.89;59.47;102268.03;1788586;80;21107;-54
2022/03/22 01:22:55;;;;;;;9.58;3.55;;;;;;;5.87;59.56;102268.61;1788457;80;21550;-55
2022/03/22 01:25:27;;;;;;;10.40;4.05;;;;;;;5.84;59.62;102274.27;1786839;80;21158;-54
2022/03/22 01:27:56;;;;;;;9.88;3.67;;;;;;;5.83;59.72;102271.17;1774857;81;21179;-55
2022/03/22 01:30:27;;;;;;;10.48;3.75;;;;;;;5.80;59.79;102269.19;1774935;80;21621;-55
2022/03/22 01:32:57;;;;;;;8.48;3.85;;;;;;;5.78;59.88;102271.16;1774539;81;21124;-56
2022/03/22 01:35:28;;;;;;;8.00;3.60;;;;;;;5.76;60.04;102274.50;1774352;80;21095;-56
2022/03/22 01:37:57;;;;;;;11.25;3.90;;;;;;;5.73;60.12;102279.69;1774758;81;21148;-54
2022/03/22 01:40:27;;;;;;;9.85;3.70;;;;;;;5.70;60.31;102278.07;1774518;81;21107;-54
2022/03/22 01:42:57;;;;;;;10.10;4.00;;;;;;;5.69;60.37;102283.63;1774545;81;21645;-55
2022/03/22 01:45:26;;;;;;;9.55;3.50;;;;;;;5.67;60.51;102286.97;1774531;81;21146;-54
2022/03/22 01:47:59;;;;;;;10.53;4.15;;;;;;;5.64;60.58;102282.62;1774437;80;21198;-54
2022/03/22 01:50:29;;;;;;;11.33;4.20;;;;;;;5.64;60.66;102279.05;1774843;81;21528;-54
2022/03/22 01:53:00;;;;;;;11.08;4.35;;;;;;;5.62;60.73;102280.52;1774626;81;21123;-57
2022/03/22 01:55:29;;;;;;;10.90;4.00;;;;;;;5.61;60.84;102285.59;1774578;81;21111;-54
2022/03/22 01:57:58;;;;;;;10.60;3.95;;;;;;;5.62;60.98;102281.02;1774715;81;21123;-55
2022/03/22 02:00:27;;;;;;;11.60;4.28;;;;;;;5.61;60.98;102282.00;1774507;81;21167;-55
2022/03/22 02:05:55;;;;;;;11.97;4.40;;;;;;;5.60;61.09;102284.34;1774623;80;21112;-54
2022/03/22 02:08:26;;;;;;;14.40;4.60;;;;;;;5.57;61.08;102283.23;1774449;79;21131;-55
2022/03/22 02:10:59;;;;;;;11.13;4.20;;;;;;;5.56;61.10;102282.85;1731232;83;21159;-55
2022/03/22 02:13:30;;;;;;;13.65;4.50;;;;;;;5.55;61.17;102279.76;1731326;83;21245;-54
2022/03/22 02:16:04;;;;;;;12.33;4.28;;;;;;;5.53;61.18;102287.17;1731325;83;21130;-54
2022/03/22 02:18:34;;;;;;;11.85;4.12;;;;;;;5.50;61.28;102280.12;1673550;86;21203;-53
2022/03/22 02:21:03;;;;;;;10.75;4.22;;;;;;;5.48;61.28;102283.94;1673521;86;21166;-54
2022/03/22 02:23:58;;;;;;;11.60;4.80;;;;;;;5.47;61.41;102283.56;1673523;86;21170;-53
2022/03/22 02:26:27;;;;;;;8.83;4.08;;;;;;;5.43;61.45;102292.45;1672548;85;21603;-54
2022/03/22 02:28:57;;;;;;;10.15;4.30;;;;;;;5.38;61.65;102289.22;1696521;83;21103;-53
2022/03/22 02:31:29;;;;;;;10.20;4.42;;;;;;;5.34;61.85;102296.74;1654168;87;21215;-53
2022/03/22 02:33:59;;;;;;;13.95;4.97;;;;;;;5.33;61.90;102297.73;1728931;83;21131;-54
2022/03/22 02:36:28;;;;;;;13.53;4.35;;;;;;;5.29;62.03;102296.72;1678276;83;21114;-54
2022/03/22 02:38:57;;;;;;;10.35;3.92;;;;;;;5.26;62.12;102295.59;1783049;80;21107;-55
2022/03/22 02:41:26;;;;;;;13.75;4.90;;;;;;;5.24;62.26;102303.87;1782914;80;21201;-55
2022/03/22 02:43:55;;;;;;;9.93;3.85;;;;;;;5.23;62.30;102303.49;1782859;80;21146;-55
2022/03/22 02:46:25;;;;;;;10.65;4.10;;;;;;;5.23;62.55;102302.62;1782906;79;21606;-55
2022/03/22 02:48:54;;;;;;;11.03;4.78;;;;;;;5.23;62.54;102299.91;1782843;80;21108;-55
2022/03/22 02:51:23;;;;;;;10.75;4.17;;;;;;;5.21;62.61;102300.52;1782790;80;21162;-55
2022/03/22 02:53:53;;;;;;;12.65;4.40;;;;;;;5.19;62.54;102300.59;1782680;80;21138;-55
2022/03/22 02:56:23;;;;;;;13.08;4.33;;;;;;;5.19;62.55;102300.59;1782895;80;21146;-54
2022/03/22 02:58:53;;;;;;;12.45;4.87;;;;;;;5.17;62.71;102299.84;1782714;80;21151;-54
2022/03/22 03:01:22;;;;;;;10.35;4.60;;;;;;;5.13;62.72;102291.55;1783026;80;21147;-55
2022/03/22 03:03:52;;;;;;;12.28;4.65;;;;;;;5.11;62.72;102297.59;1783113;80;21131;-55
2022/03/22 03:06:21;;;;;;;12.28;4.87;;;;;;;5.09;62.77;102292.77;1782756;80;21135;-54
2022/03/22 03:08:51;;;;;;;16.50;4.60;;;;;;;5.07;62.81;102295.59;1782879;80;21495;-55
2022/03/22 03:11:20;;;;;;;11.65;4.50;;;;;;;5.04;62.86;102297.19;1782744;79;21155;-55
2022/03/22 03:16:43;;;;;;;14.23;4.87;;;;;;;5.00;62.89;102307.05;1782951;80;21151;-55
2022/03/22 03:19:12;;;;;;;11.10;4.55;;;;;;;4.98;62.95;102306.30;1783050;80;21561;-54
2022/03/22 03:21:41;;;;;;;16.35;5.05;;;;;;;4.95;62.99;102319.61;1782707;80;21058;-53
2022/03/22 03:24:10;;;;;;;13.78;4.35;;;;;;;4.92;63.09;102308.98;1782783;79;21047;-55
2022/03/22 03:26:39;;;;;;;10.60;4.80;;;;;;;4.90;63.23;102306.87;1779805;80;21092;-53
2022/03/22 03:29:09;;;;;;;11.25;4.40;;;;;;;4.86;63.35;102304.49;1731076;83;21028;-54
2022/03/22 03:31:38;;;;;;;10.50;4.62;;;;;;;4.83;63.46;102307.44;1730922;83;21072;-54
2022/03/22 03:34:08;;;;;;;14.47;4.97;;;;;;;4.83;63.51;102308.30;1654450;86;21535;-56
2022/03/22 03:36:37;;;;;;;16.80;4.65;;;;;;;4.81;63.56;102310.76;1731216;83;21520;-54
2022/03/22 03:39:06;;;;;;;15.88;5.12;;;;;;;4.80;63.65;102318.04;1731045;83;21068;-55
2022/03/22 03:41:54;;;;;;;11.83;5.10;;;;;;;4.77;63.66;102315.55;1731161;82;21075;-53
2022/03/22 03:47:22;;;;;;;10.93;4.50;;;;;;;4.72;63.84;102321.81;1753005;81;21024;-54
2022/03/22 03:50:00;;;;;;;11.68;4.95;;;;;;;4.68;63.94;102326.60;1774685;79;21052;-55
2022/03/22 03:52:33;;;;;;;14.98;5.15;;;;;;;4.67;64.08;102333.02;1774511;81;21021;-55
2022/03/22 03:55:07;;;;;;;15.00;4.72;;;;;;;4.63;64.22;102328.78;1774238;79;21032;-55
2022/03/22 03:57:36;;;;;;;13.40;4.47;;;;;;;4.61;64.28;102325.80;1774790;81;21005;-55
2022/03/22 04:00:08;;;;;;;12.85;4.72;;;;;;;4.59;64.34;102327.27;1774630;79;21044;-54
2022/03/22 04:02:41;;;;;;;13.58;4.95;;;;;;;4.58;64.45;102332.81;1774831;80;21020;-55
2022/03/22 04:05:11;;;;;;;14.13;4.85;;;;;;;4.55;64.54;102328.93;1774746;81;21001;-54
2022/03/22 04:07:42;;;;;;;15.18;5.03;;;;;;;4.52;64.67;102335.45;1774569;81;21036;-55
2022/03/22 04:10:11;;;;;;;11.57;4.85;;;;;;;4.52;64.71;102345.44;1774409;81;21001;-55
2022/03/22 04:12:42;;;;;;;11.88;4.78;;;;;;;4.49;64.82;102338.39;1774723;81;21000;-53
2022/03/22 04:15:11;;;;;;;10.28;4.10;;;;;;;4.46;64.83;102336.77;1774981;80;21095;-55
2022/03/22 04:17:42;;;;;;;14.25;4.70;;;;;;;4.45;64.86;102342.30;1774469;81;21001;-54
2022/03/22 04:20:13;;;;;;;12.98;4.97;;;;;;;4.43;65.02;102338.34;1774452;79;20998;-54
2022/03/22 04:22:43;;;;;;;12.58;5.12;;;;;;;4.42;65.05;102343.88;1774557;81;21044;-53
2022/03/22 04:25:13;;;;;;;20.65;4.62;;;;;;;4.39;65.12;102343.61;1774814;81;21020;-53
2022/03/22 04:33:17;;;;;;;15.40;5.05;;;;;;;4.34;65.47;102352.58;1774619;81;20472;-53
2022/03/22 04:35:46;;;;;;;14.65;5.00;;;;;;;4.33;65.60;102352.69;1774754;81;21472;-54
2022/03/22 04:38:16;;;;;;;11.95;4.83;;;;;;;4.31;65.62;102364.14;1774671;81;21510;-56
2022/03/22 04:40:45;;;;;;;11.83;4.25;;;;;;;4.30;65.70;102365.11;1774628;81;21024;-52
2022/03/22 04:43:16;;;;;;;11.18;4.85;;;;;;;4.29;65.73;102365.61;1774606;80;21496;-53
2022/03/22 04:45:47;;;;;;;12.20;4.25;;;;;;;4.30;65.77;102368.70;1774692;80;21005;-55
2022/03/22 04:48:16;;;;;;;13.95;4.58;;;;;;;4.28;65.94;102369.78;1774624;81;21416;-56
2022/03/22 04:50:47;;;;;;;13.50;4.70;;;;;;;4.26;65.98;102371.73;1774912;81;21032;-55
2022/03/22 04:58:39;;;;;;;15.13;4.72;;;;;;;4.27;66.09;102380.26;1774862;81;21432;-54
2022/03/22 05:01:08;;;;;;;14.53;4.78;;;;;;;4.28;66.13;102379.28;1774559;81;21044;-53
2022/03/22 05:03:40;;;;;;;14.35;4.50;;;;;;;4.28;66.20;102371.14;1774575;79;21650;-54
2022/03/22 05:07:10;;;;;;;13.48;4.70;;;;;;;4.30;66.23;102370.55;1774528;79;21462;-55
2022/03/22 05:08:51;;;;;;;12.43;4.55;;;;;;;4.30;66.26;102368.70;1749303;80;21020;-55
2022/03/22 05:11:24;;;;;;;14.83;5.03;;;;;;;4.33;66.21;102374.39;1774599;81;21444;-54
2022/03/22 05:13:54;;;;;;;14.55;4.87;;;;;;;4.33;66.19;102377.98;1774795;80;21079;-54
2022/03/22 05:16:25;;;;;;;12.18;4.67;;;;;;;4.34;66.16;102372.93;1774922;81;20968;-54
2022/03/22 05:18:55;;;;;;;14.40;4.80;;;;;;;4.35;66.11;102377.87;1775004;81;21016;-53
2022/03/22 05:21:25;;;;;;;14.07;5.08;;;;;;;4.36;66.16;102385.03;1774777;80;21429;-54
2022/03/22 05:23:54;;;;;;;12.82;4.65;;;;;;;4.37;66.12;102375.42;1774738;81;21116;-54
2022/03/22 05:26:26;;;;;;;13.38;4.97;;;;;;;4.39;66.08;102384.33;1774620;81;21040;-54
2022/03/22 05:28:57;;;;;;;14.13;5.05;;;;;;;4.41;66.09;102383.73;1774571;81;20976;-53
2022/03/22 05:31:27;;;;;;;14.75;4.87;;;;;;;4.42;66.10;102385.95;1774644;80;21013;-54
2022/03/22 05:33:56;;;;;;;13.05;5.17;;;;;;;4.43;66.06;102391.27;1774563;81;21048;-54
2022/03/22 05:36:25;;;;;;;11.88;5.15;;;;;;;4.45;66.00;102395.23;1774809;81;21416;-53
2022/03/22 05:38:54;;;;;;;15.55;5.70;;;;;;;4.45;65.89;102389.31;1774914;80;20997;-55
2022/03/22 05:41:23;;;;;;;12.85;6.05;;;;;;;4.49;65.82;102398.59;1774575;81;21053;-54
2022/03/22 05:43:52;;;;;;;14.10;5.40;;;;;;;4.50;65.70;102403.92;1774549;81;21016;-54
2022/03/22 05:46:22;;;;;;;13.58;5.55;;;;;;;4.52;65.64;102400.61;1774890;81;21016;-54
2022/03/22 05:48:54;;;;;;;13.48;6.10;;;;;;;4.51;65.62;102401.58;1774663;80;21063;-55
2022/03/22 05:51:23;;;;;;;16.45;6.22;;;;;;;4.50;65.58;102401.20;1774714;81;21020;-54
2022/03/22 05:53:52;;;;;;;17.27;6.17;;;;;;;4.52;65.47;102410.11;1774433;80;21056;-56
2022/03/22 05:56:21;;;;;;;21.07;7.17;;;;;;;4.56;65.42;102408.08;1774603;81;20965;-54
2022/03/22 05:58:50;;;;;;;16.40;7.05;;;;;;;4.57;65.39;102402.53;1774576;80;21020;-55
2022/03/22 06:01:21;;;;;;;18.80;6.10;;;;;;;4.60;65.37;102416.37;1774574;80;21000;-55
2022/03/22 06:03:50;;;;;;;15.45;6.67;;;;;;;4.61;65.27;102417.63;1774552;81;21024;-54
2022/03/22 06:06:22;;;;;;;19.23;6.35;;;;;;;4.63;65.16;102410.23;1774487;81;21009;-54
2022/03/22 06:08:52;;;;;;;13.88;6.50;;;;;;;4.66;65.09;102418.16;1774789;81;21468;-54
2022/03/22 06:11:21;;;;;;;15.23;6.47;;;;;;;4.69;65.00;102416.59;1774827;79;21040;-55
2022/03/22 06:13:51;;;;;;;15.00;6.35;;;;;;;4.72;64.89;102415.01;1774733;81;21100;-55
2022/03/22 06:16:21;;;;;;;18.90;7.08;;;;;;;4.75;64.77;102420.22;1774776;79;21001;-53
2022/03/22 06:18:50;;;;;;;14.80;6.37;;;;;;;4.76;64.68;102419.73;1774559;81;20995;-54
2022/03/22 06:21:22;;;;;;;14.93;6.20;;;;;;;4.76;64.57;102423.31;1774669;79;21091;-56
2022/03/22 06:23:52;;;;;;;15.95;6.47;;;;;;;4.79;64.56;102430.37;1774498;81;21032;-53
2022/03/22 06:26:21;;;;;;;18.12;6.53;;;;;;;4.82;64.48;102430.15;1774523;81;21044;-53
2022/03/22 06:28:51;;;;;;;14.00;6.08;;;;;;;4.86;64.39;102432.16;1786425;80;21055;-55
2022/03/22 06:31:20;;;;;;;16.52;6.35;;;;;;;4.88;64.35;102431.55;1788232;79;21000;-54
2022/03/22 06:33:49;;;;;;;16.12;6.12;;;;;;;4.92;64.25;102433.94;1788244;80;21206;-55
2022/03/22 06:36:18;;;;;;;17.80;6.50;;;;;;;4.94;64.20;102444.20;1788338;80;21023;-53
2022/03/22 06:38:46;;;;;;;17.50;6.17;;;;;;;4.98;64.09;102438.92;1788331;80;20996;-55
2022/03/22 06:41:16;;;;;;;15.78;6.25;;;;;;;5.03;63.90;102441.30;1788481;80;20979;-54
2022/03/22 06:43:45;;;;;;;18.45;6.50;;;;;;;5.06;63.76;102446.52;1788337;80;20991;-55
2022/03/22 06:46:18;;;;;;;15.58;6.25;;;;;;;5.08;63.61;102444.06;1788268;80;21415;-55
2022/03/22 06:48:49;;;;;;;28.15;7.60;;;;;;;5.12;63.49;102450.63;1788467;80;20960;-55
2022/03/22 06:51:21;;;;;;;17.35;6.85;;;;;;;5.16;63.38;102448.06;1788010;80;21000;-54
2022/03/22 06:53:51;;;;;;;20.08;6.80;;;;;;;5.19;63.24;102447.35;1788420;80;20996;-55
2022/03/22 06:56:20;;;;;;;16.25;6.37;;;;;;;5.23;63.13;102449.39;1788242;80;21008;-55
2022/03/22 06:58:52;;;;;;;16.12;6.22;;;;;;;5.28;62.96;102448.56;1788317;80;21007;-56
2022/03/22 07:01:21;;;;;;;15.10;6.62;;;;;;;5.29;62.90;102453.87;1788301;80;21060;-53
2022/03/22 07:03:50;;;;;;;16.07;6.35;;;;;;;5.33;62.72;102453.16;1788253;80;21039;-54
2022/03/22 07:06:20;;;;;;;15.32;6.83;;;;;;;5.35;62.60;102456.14;1788188;80;21537;-55
2022/03/22 07:08:50;;;;;;;16.80;6.12;;;;;;;5.38;62.41;102449.61;1788577;80;21451;-55
2022/03/22 07:14:08;;;;;;;15.90;6.33;;;;;;;5.47;62.10;102454.86;1788726;80;20992;-55
2022/03/22 07:16:37;;;;;;;17.85;6.78;;;;;;;5.51;61.92;102451.79;1788449;80;20976;-54
2022/03/22 07:19:06;;;;;;;15.18;6.53;;;;;;;5.55;61.76;102453.30;1788196;80;21031;-55
2022/03/22 07:21:35;;;;;;;12.18;5.55;;;;;;;5.59;61.57;102449.86;1788272;79;21477;-58
2022/03/22 07:24:11;;;;;;;14.98;6.08;;;;;;;5.63;61.37;102453.59;1788312;80;21431;-55
2022/03/22 07:26:40;;;;;;;19.32;6.40;;;;;;;5.67;61.02;102454.23;1788223;80;21020;-55
2022/03/22 07:29:09;;;;;;;12.25;5.45;;;;;;;5.74;60.71;102448.20;1777834;80;21059;-54
2022/03/22 07:31:41;;;;;;;12.98;5.47;;;;;;;5.80;60.31;102439.20;1788099;80;21464;-55
2022/03/22 07:34:12;;;;;;;15.83;5.35;;;;;;;5.86;59.87;102438.28;1788362;80;21028;-57
2022/03/22 07:36:41;;;;;;;12.95;5.22;;;;;;;5.93;59.61;102451.81;1788225;80;21027;-55
2022/03/22 07:39:13;;;;;;;14.10;5.67;;;;;;;5.99;59.29;102444.55;1787676;80;21040;-57
2022/03/22 07:41:44;;;;;;;14.53;5.53;;;;;;;6.03;59.08;102444.69;1788163;80;21047;-55
2022/03/22 07:44:13;;;;;;;12.90;5.50;;;;;;;6.07;58.87;102448.03;1788307;80;20988;-55
2022/03/22 07:46:44;;;;;;;11.53;5.65;;;;;;;6.10;58.71;102438.77;1788639;80;21019;-55
2022/03/22 07:54:58;;;;;;;11.73;5.20;;;;;;;6.21;57.85;102442.39;1788554;80;21020;-54
2022/03/22 07:57:27;;;;;;;13.05;5.20;;;;;;;6.29;57.57;102439.06;1788434;79;21008;-56
2022/03/22 07:59:56;;;;;;;15.15;4.78;;;;;;;6.42;57.40;102438.97;1788304;80;21099;-57
2022/03/22 08:02:24;;;;;;;12.40;4.80;;;;;;;6.75;56.84;102434.09;1788356;80;20980;-55
2022/03/22 08:04:53;;;;;;;10.93;4.60;;;;;;;7.27;56.08;102437.56;1788515;80;21039;-54
2022/03/22 08:07:23;;;;;;;11.43;5.10;;;;;;;7.87;55.16;102437.05;1788361;80;21519;-55
2022/03/22 08:09:52;;;;;;;11.20;4.78;;;;;;;8.61;53.48;102443.03;1788549;80;21487;-55
2022/03/22 08:12:22;;;;;;;12.47;4.78;;;;;;;9.41;51.54;102434.90;1788371;79;21047;-56
2022/03/22 08:14:52;;;;;;;13.22;4.95;;;;;;;10.13;49.66;102438.67;1788370;80;21416;-56
2022/03/22 08:17:21;;;;;;;10.78;4.95;;;;;;;10.74;48.63;102430.97;1788385;80;21055;-55
2022/03/22 08:19:50;;;;;;;14.20;5.85;;;;;;;11.33;47.22;102431.61;1788518;80;21043;-57
2022/03/22 08:22:20;;;;;;;12.00;5.37;;;;;;;11.86;45.71;102434.49;1788310;80;21035;-56
2022/03/22 08:24:49;;;;;;;13.30;4.70;;;;;;;12.28;43.90;102420.95;1788289;80;21043;-54
2022/03/22 08:27:18;;;;;;;12.82;4.85;;;;;;;12.61;42.44;102417.97;1788352;80;21003;-57
2022/03/22 08:29:47;;;;;;;10.43;4.87;;;;;;;12.89;41.07;102425.53;1785404;79;21039;-55
2022/03/22 08:32:18;;;;;;;11.83;5.05;;;;;;;13.17;39.75;102421.26;1775030;80;21004;-56
2022/03/22 08:34:48;;;;;;;9.90;4.60;;;;;;;13.24;39.64;102427.31;1774614;81;21029;-56
2022/03/22 08:37:17;;;;;;;10.10;4.65;;;;;;;13.33;39.28;102424.94;1774848;81;21008;-55
2022/03/22 08:39:46;;;;;;;11.22;5.20;;;;;;;13.58;38.96;102422.27;1774819;79;21055;-56
2022/03/22 08:42:15;;;;;;;13.62;4.72;;;;;;;13.92;38.01;102413.41;1774560;81;21040;-56
2022/03/22 08:44:48;;;;;;;11.70;5.03;;;;;;;14.24;37.53;102414.45;1774673;79;21013;-57
2022/03/22 08:47:18;;;;;;;12.15;5.35;;;;;;;14.46;37.30;102408.81;1774663;81;21043;-57
2022/03/22 08:49:48;;;;;;;11.25;5.05;;;;;;;14.64;36.71;102419.13;1774541;81;21048;-56
2022/03/22 08:52:18;;;;;;;12.85;5.35;;;;;;;14.63;36.70;102420.68;1774609;81;21958;-56
2022/03/22 08:54:47;;;;;;;15.90;6.25;;;;;;;14.68;36.71;102412.22;1774552;81;21016;-56
2022/03/22 08:57:18;;;;;;;12.45;5.45;;;;;;;14.78;36.49;102406.50;1774750;81;21498;-55
2022/03/22 08:59:47;;;;;;;11.88;5.83;;;;;;;14.77;36.14;102407.02;1774553;81;21040;-55
2022/03/22 09:02:16;;;;;;;16.23;6.42;;;;;;;14.69;36.07;102408.42;1774603;79;21040;-56
2022/03/22 09:07:34;;;;;;;15.95;6.05;;;;;;;14.49;36.45;102403.80;1774482;81;21008;-56
2022/03/22 09:10:05;;;;;;;13.38;5.83;;;;;;;14.38;36.28;102400.52;1774601;80;21448;-55
2022/03/22 09:12:35;;;;;;;15.40;5.92;;;;;;;14.19;36.21;102400.31;1774558;80;21036;-56
2022/03/22 09:15:05;;;;;;;14.60;6.15;;;;;;;14.03;36.51;102401.69;1774758;81;21032;-57
2022/03/22 09:17:36;;;;;;;12.70;5.47;;;;;;;13.86;36.48;102401.68;1774446;81;21457;-55
2022/03/22 09:20:08;;;;;;;8.78;4.15;;;;;;;13.73;36.58;102401.83;1774508;79;21052;-55
2022/03/22 09:22:39;;;;;;;7.80;3.30;;;;;;;13.62;35.59;102403.84;1730988;83;21500;-55
2022/03/22 09:25:11;;;;;;;8.70;2.55;;;;;;;13.52;33.75;102404.52;1654910;86;21520;-55
2022/03/22 09:27:43;;;;;;;7.42;2.62;;;;;;;13.41;32.78;102397.94;1731090;83;21051;-57
2022/03/22 09:30:13;;;;;;;7.42;2.58;;;;;;;13.36;32.64;102399.48;1730575;82;21075;-54
2022/03/22 09:32:43;;;;;;;7.67;2.50;;;;;;;13.27;32.49;102391.70;1728683;83;21036;-56
2022/03/22 09:35:13;;;;;;;6.12;2.45;;;;;;;13.22;32.76;102389.45;1728754;83;21067;-56
2022/03/22 09:37:43;;;;;;;5.78;2.50;;;;;;;13.18;32.33;102392.19;1728620;83;21494;-56
2022/03/22 09:40:13;;;;;;;7.95;2.20;;;;;;;13.15;32.03;102395.23;1742276;80;21031;-56
2022/03/22 09:42:45;;;;;;;4.58;2.05;;;;;;;13.15;31.62;102393.00;1782754;80;20996;-57
2022/03/22 09:45:18;;;;;;;7.10;2.27;;;;;;;13.10;31.56;102392.63;1782766;80;21420;-56
2022/03/22 09:47:48;;;;;;;5.00;1.82;;;;;;;13.05;31.17;102390.89;1699859;84;21056;-55
2022/03/22 09:50:17;;;;;;;4.30;1.82;;;;;;;12.98;30.58;102387.39;1654027;87;21020;-55
2022/03/22 09:52:47;;;;;;;4.37;1.70;;;;;;;12.94;30.62;102383.25;1699572;84;21135;-55
2022/03/22 09:55:20;;;;;;;5.35;1.87;;;;;;;12.91;30.76;102382.20;1653976;87;21076;-56
2022/03/22 09:57:51;;;;;;;7.53;2.30;;;;;;;12.90;30.66;102383.23;1699653;84;21052;-55
2022/03/22 10:00:21;;;;;;;6.58;2.17;;;;;;;12.85;30.78;102385.61;1654197;87;21071;-55
2022/03/22 10:02:50;;;;;;;6.22;1.82;;;;;;;12.73;31.00;102380.55;1699644;84;21036;-56
2022/03/22 10:05:26;;;;;;;6.37;1.90;;;;;;;12.64;31.28;102381.89;1669304;83;21412;-55
2022/03/22 10:08:00;;;;;;;4.60;1.77;;;;;;;12.63;31.67;102381.53;1782740;80;21060;-54
2022/03/22 10:10:31;;;;;;;4.03;2.08;;;;;;;12.59;31.65;102369.14;1782980;80;21007;-56
2022/03/22 10:13:03;;;;;;;5.67;2.33;;;;;;;12.59;31.63;102369.65;1782969;80;21008;-54
2022/03/22 10:15:36;;;;;;;5.15;2.22;;;;;;;12.55;31.83;102366.88;1699570;84;21091;-56
2022/03/22 10:18:08;;;;;;;4.83;2.27;;;;;;;12.51;32.00;102359.47;1654022;87;21477;-55
2022/03/22 10:20:40;;;;;;;7.67;2.72;;;;;;;12.50;32.18;102364.61;1699557;83;21016;-56
2022/03/22 10:23:12;;;;;;;6.12;2.70;;;;;;;12.50;32.32;102362.37;1654128;87;21127;-55
2022/03/22 10:25:42;;;;;;;7.90;2.42;;;;;;;12.51;32.17;102358.60;1699522;84;21071;-56
2022/03/22 10:28:11;;;;;;;6.20;2.42;;;;;;;12.54;32.46;102358.27;1654004;87;21480;-55
2022/03/22 10:30:40;;;;;;;7.92;2.90;;;;;;;12.55;32.74;102355.36;1699628;84;21111;-55
2022/03/22 10:33:10;;;;;;;8.50;3.10;;;;;;;12.55;32.95;102355.87;1654123;87;21099;-55
2022/03/22 10:35:41;;;;;;;9.48;3.05;;;;;;;12.52;33.17;102350.19;1699681;84;21071;-54
2022/03/22 10:38:12;;;;;;;6.33;3.00;;;;;;;12.51;33.48;102343.48;1591053;87;21024;-55
2022/03/22 10:40:49;;;;;;;7.40;3.05;;;;;;;12.49;33.77;102345.53;1759362;80;21012;-54
2022/03/22 10:43:22;;;;;;;7.55;3.30;;;;;;;12.49;33.93;102340.03;1782779;80;21023;-55
2022/03/22 10:45:59;;;;;;;9.43;3.30;;;;;;;12.50;34.42;102343.13;1782998;80;21015;-56
2022/03/22 10:48:40;;;;;;;7.12;3.40;;;;;;;12.52;34.49;102341.08;1782762;80;21517;-55
2022/03/22 10:51:15;;;;;;;7.72;2.95;;;;;;;12.55;34.40;102337.48;1782814;79;21490;-55
2022/03/22 10:53:45;;;;;;;8.58;3.70;;;;;;;12.59;34.39;102329.77;1782683;80;20980;-55
2022/03/22 10:56:16;;;;;;;9.18;3.17;;;;;;;12.60;34.31;102324.63;1763288;80;21063;-55
2022/03/22 10:58:45;;;;;;;7.20;3.00;;;;;;;12.61;34.33;102332.70;1763308;80;21028;-56
2022/03/22 11:01:16;;;;;;;8.23;3.00;;;;;;;12.61;34.24;102322.22;1763455;80;21036;-55
2022/03/22 11:03:45;;;;;;;6.85;3.05;;;;;;;12.59;34.46;102313.27;1782780;80;21115;-55
2022/03/22 11:06:14;;;;;;;8.55;3.40;;;;;;;12.60;34.32;102316.37;1782718;79;21448;-56
2022/03/22 11:08:44;;;;;;;7.75;3.12;;;;;;;12.62;34.30;102303.31;1783062;80;21048;-57
2022/03/22 11:11:13;;;;;;;7.62;3.45;;;;;;;12.65;34.00;102294.73;1782963;80;21036;-57
2022/03/22 11:13:44;;;;;;;5.58;2.77;;;;;;;12.68;33.90;102293.03;1728795;82;20988;-55
2022/03/22 11:16:13;;;;;;;8.75;3.10;;;;;;;12.69;34.16;102292.86;1728582;83;21135;-55
2022/03/22 11:18:44;;;;;;;8.33;3.02;;;;;;;12.76;34.16;102292.20;1729020;83;21056;-57
2022/03/22 11:21:17;;;;;;;8.80;3.10;;;;;;;12.82;34.00;102291.53;1728552;83;21068;-55
2022/03/22 11:23:49;;;;;;;8.90;2.95;;;;;;;12.87;34.09;102285.02;1705146;83;21040;-55
2022/03/22 11:26:23;;;;;;;7.78;3.22;;;;;;;12.88;34.00;102288.98;1728777;83;21024;-55
2022/03/22 11:28:53;;;;;;;7.10;3.00;;;;;;;12.87;33.82;102290.52;1728681;83;21059;-55
2022/03/22 11:31:27;;;;;;;8.60;3.40;;;;;;;12.84;33.78;102280.71;1744666;80;21464;-55
2022/03/22 11:34:09;;;;;;;5.33;2.62;;;;;;;12.84;33.82;102278.47;1765454;80;21012;-56
2022/03/22 11:36:48;;;;;;;8.78;2.83;;;;;;;12.86;33.50;102271.78;1784889;80;20976;-55
2022/03/22 11:39:19;;;;;;;9.25;3.15;;;;;;;12.87;33.65;102274.88;1785082;80;21008;-56
2022/03/22 11:44:39;;;;;;;5.97;2.52;;;;;;;12.96;33.57;102262.00;1785105;80;21004;-56
2022/03/22 11:47:15;;;;;;;7.83;2.83;;;;;;;13.01;33.40;102261.88;1784999;80;21024;-56
2022/03/22 11:50:02;;;;;;;11.68;3.42;;;;;;;13.00;33.37;102259.27;1784988;80;21047;-56
2022/03/22 11:52:39;;;;;;;6.95;2.72;;;;;;;13.01;33.41;102260.50;1784950;80;21059;-55
2022/03/22 11:55:19;;;;;;;6.67;2.70;;;;;;;13.00;33.47;102253.76;1784771;79;21023;-57
2022/03/22 11:57:50;;;;;;;;;;;;;;;13.03;33.51;102261.70;1787412;79;21011;-55
2022/03/22 12:00:51;;;;;;;7.35;2.75;;;;;;;13.18;33.16;102249.55;1784898;80;20141;-56
2022/03/22 12:03:18;;;;;;;7.83;2.72;;;;;;;13.24;33.09;102251.63;1784766;79;21032;-54
2022/03/22 12:05:48;;;;;;;13.88;3.45;;;;;;;13.24;33.03;102248.36;1784787;80;21489;-54
2022/03/22 12:08:17;;;;;;;7.37;2.98;;;;;;;13.21;33.07;102236.31;1785174;80;20980;-55
2022/03/22 12:10:52;;;;;;;8.55;3.40;;;;;;;13.20;33.03;102239.23;1730944;82;21476;-54
2022/03/22 12:13:23;;;;;;;7.20;2.90;;;;;;;13.22;32.77;102227.54;1730871;82;21485;-56
2022/03/22 12:16:04;;;;;;;6.92;2.75;;;;;;;13.29;32.95;102234.09;1731186;83;21019;-54
2022/03/22 12:18:35;;;;;;;7.55;3.05;;;;;;;13.30;32.96;102233.05;1731190;82;21068;-56